createdAt,value
2023-01-06T16:09:30.897Z,35.30
2023-01-06T16:12:08.459Z,34.53
2023-01-06T16:14:38.678Z,33.70
2023-01-06T16:17:12.081Z,32.53
2023-01-06T16:19:47.455Z,32.27
2023-01-06T16:22:30.611Z,30.80
2023-01-06T16:25:02.551Z,28.87
2023-01-06T16:27:31.489Z,27.27
2023-01-06T16:30:21.876Z,26.00
2023-01-06T16:32:52.562Z,25.23
2023-01-06T16:35:22.941Z,24.90
2023-01-06T16:37:51.875Z,24.60
2023-01-06T16:40:24.319Z,24.33
2023-01-06T16:42:59.514Z,23.13
2023-01-06T16:45:33.728Z,22.87
2023-01-06T16:48:02.237Z,22.87
2023-01-06T16:50:35.055Z,22.97
2023-01-06T16:53:11.962Z,21.87
2023-01-06T16:55:42.742Z,22.43
2023-01-06T16:58:16.994Z,21.83
2023-01-06T17:00:51.323Z,20.70
2023-01-06T17:03:21.124Z,21.17
2023-01-06T17:05:49.438Z,21.33
2023-01-06T17:08:26.410Z,22.03
2023-01-06T17:10:56.179Z,22.77
2023-01-06T17:13:36.860Z,22.20
2023-01-06T17:16:14.648Z,22.97
2023-01-06T17:18:50.117Z,22.13
2023-01-06T17:21:21.009Z,23.73
2023-01-06T17:23:51.509Z,22.47
2023-01-06T17:26:21.919Z,23.07
2023-01-06T17:28:51.764Z,23.53
2023-01-06T17:31:28.242Z,23.37
2023-01-06T17:33:58.178Z,24.07
2023-01-06T17:36:31.946Z,24.13
2023-01-06T17:39:00.113Z,23.17
2023-01-06T17:41:32.457Z,24.37
2023-01-06T17:44:00.588Z,24.47
2023-01-06T17:46:34.458Z,23.27
2023-01-06T17:49:07.751Z,26.50
2023-01-06T17:51:36.483Z,25.83
2023-01-06T17:54:32.932Z,25.93
2023-01-06T17:57:11.902Z,24.67
2023-01-06T17:59:41.638Z,24.73
2023-01-06T18:02:35.816Z,25.67
2023-01-06T18:05:33.854Z,24.67
2023-01-06T18:08:11.977Z,23.97
2023-01-06T18:10:44.278Z,21.63
2023-01-06T18:13:17.373Z,21.37
2023-01-06T18:15:47.646Z,20.80
2023-01-06T18:18:20.360Z,20.40
2023-01-06T18:20:53.062Z,22.03
2023-01-06T18:23:23.979Z,21.17
2023-01-06T18:25:54.345Z,20.33
2023-01-06T18:28:24.146Z,20.33
2023-01-06T18:30:56.347Z,22.13
2023-01-06T18:33:24.829Z,24.27
2023-01-06T18:35:57.566Z,25.57
2023-01-06T18:38:26.484Z,25.97
2023-01-06T18:40:55.408Z,26.87
2023-01-06T18:43:28.045Z,26.00
2023-01-06T18:46:03.781Z,27.47
2023-01-06T18:48:34.076Z,26.87
2023-01-06T18:51:03.901Z,28.10
2023-01-06T18:53:37.961Z,27.80
2023-01-06T18:56:13.345Z,28.03
2023-01-06T18:58:47.639Z,27.03
2023-01-06T19:01:22.369Z,28.23
2023-01-06T19:03:59.453Z,28.50
2023-01-06T19:06:51.000Z,29.37
2023-01-06T19:09:39.167Z,27.23
2023-01-06T19:12:19.869Z,26.97
2023-01-06T19:14:52.017Z,26.63
2023-01-06T19:17:27.164Z,27.00
2023-01-06T19:19:56.996Z,26.93
2023-01-06T19:22:27.304Z,26.87
2023-01-06T19:25:03.640Z,26.03
2023-01-06T19:27:44.040Z,27.00
2023-01-06T19:30:48.894Z,25.83
2023-01-06T19:33:34.794Z,26.00
2023-01-06T19:36:42.915Z,26.23
2023-01-06T19:39:27.458Z,25.57
2023-01-06T19:41:59.421Z,26.70
2023-01-06T19:44:32.569Z,26.67
2023-01-06T19:47:14.113Z,25.43
2023-01-06T19:49:45.354Z,26.57
2023-01-06T19:52:30.362Z,27.73
2023-01-06T19:55:03.754Z,26.90
2023-01-06T19:57:41.001Z,28.57
2023-01-06T20:00:23.641Z,29.03
2023-01-06T20:02:57.518Z,30.13
2023-01-06T20:05:26.276Z,33.10
2023-01-06T20:07:54.955Z,35.63
2023-01-06T20:10:23.055Z,37.93
2023-01-06T20:12:51.294Z,37.97
2023-01-06T20:15:19.653Z,39.17
2023-01-06T20:17:47.877Z,40.80
2023-01-06T20:20:17.550Z,44.87
2023-01-06T20:22:45.738Z,44.50
2023-01-06T20:25:13.811Z,46.20
2023-01-06T20:27:41.967Z,48.07
2023-01-06T20:30:11.035Z,53.17
2023-01-06T20:32:39.126Z,56.13
2023-01-06T20:35:09.380Z,56.80
2023-01-06T20:37:39.673Z,59.50
2023-01-06T20:40:09.398Z,59.00
2023-01-06T20:42:37.645Z,62.87
2023-01-06T20:45:06.794Z,66.60
2023-01-06T20:47:34.923Z,66.57
2023-01-06T20:50:03.047Z,68.87
2023-01-06T20:52:31.153Z,72.23
2023-01-06T20:55:00.837Z,72.60
2023-01-06T20:57:28.996Z,72.93
2023-01-06T20:59:57.064Z,74.30
2023-01-06T21:02:26.423Z,72.30
2023-01-06T21:04:54.645Z,71.50
2023-01-06T21:07:23.134Z,72.43
2023-01-06T21:09:51.373Z,72.07
2023-01-06T21:12:20.832Z,72.70
2023-01-06T21:14:48.938Z,72.47
2023-01-06T21:17:17.219Z,73.73
2023-01-06T21:19:45.280Z,76.23
2023-01-06T21:22:13.408Z,77.03
2023-01-06T21:24:41.559Z,78.03
2023-01-06T21:27:09.708Z,78.63
2023-01-06T21:29:39.177Z,79.10
2023-01-06T21:32:07.257Z,78.57
2023-01-06T21:34:35.428Z,81.97
2023-01-06T21:37:03.531Z,82.93
2023-01-06T21:39:32.175Z,82.23
2023-01-06T21:42:17.975Z,85.97
2023-01-06T21:44:48.953Z,86.33
2023-01-06T21:47:17.279Z,83.27
2023-01-06T21:49:45.700Z,83.37
2023-01-06T21:52:15.412Z,84.77
2023-01-06T21:54:44.583Z,82.77
2023-01-06T21:57:12.792Z,84.80
2023-01-06T21:59:41.159Z,81.50
2023-01-06T22:02:10.963Z,78.67
2023-01-06T22:04:39.121Z,79.47
2023-01-06T22:07:10.181Z,76.73
2023-01-06T22:09:40.068Z,74.83
2023-01-06T22:12:11.971Z,76.70
2023-01-06T22:14:40.281Z,75.87
2023-01-06T22:17:08.865Z,75.43
2023-01-06T22:19:39.347Z,74.47
2023-01-06T22:22:08.161Z,73.87
2023-01-06T22:24:37.476Z,70.53
2023-01-06T22:27:05.614Z,70.73
2023-01-06T22:29:33.859Z,69.60
2023-01-06T22:32:03.393Z,68.03
2023-01-06T22:34:31.815Z,67.37
2023-01-06T22:37:01.323Z,64.43
2023-01-06T22:39:29.446Z,64.73
2023-01-06T22:41:57.636Z,63.07
2023-01-06T22:44:25.667Z,62.03
2023-01-06T22:46:53.830Z,61.30
2023-01-06T22:49:21.928Z,62.27
2023-01-06T22:51:50.083Z,59.73
2023-01-06T22:54:19.650Z,59.33
2023-01-06T22:56:47.756Z,59.37
2023-01-06T22:59:15.845Z,58.90
2023-01-06T23:01:43.986Z,58.87
2023-01-06T23:04:13.762Z,56.83
2023-01-06T23:06:42.219Z,58.07
2023-01-06T23:09:10.397Z,56.17
2023-01-06T23:11:41.720Z,57.33
2023-01-06T23:14:11.079Z,56.10
2023-01-06T23:16:41.102Z,56.50
2023-01-06T23:19:12.215Z,54.93
2023-01-06T23:21:41.232Z,55.20
2023-01-06T23:24:10.471Z,55.17
2023-01-06T23:26:42.196Z,54.87
2023-01-06T23:29:11.243Z,55.50
2023-01-06T23:31:41.525Z,54.53
2023-01-06T23:34:13.668Z,54.63
2023-01-06T23:36:41.954Z,54.67
2023-01-06T23:39:13.281Z,53.97
2023-01-06T23:41:42.925Z,54.77
2023-01-06T23:44:14.810Z,53.80
2023-01-06T23:46:43.578Z,53.30
2023-01-06T23:49:14.068Z,53.87
2023-01-06T23:51:42.357Z,54.23
2023-01-06T23:54:12.148Z,53.13
2023-01-06T23:56:40.437Z,54.03
2023-01-06T23:59:12.744Z,53.03
